Time;durP1;ratioP1;P1;durP2;ratioP2;P2;SDS_P1;SDS_P2;PMS_P1;PMS_P2;Temp;Humidity;BMP_temperature;BMP_pressure;BME280_temperature;BME280_humidity;BME280_pressure;Samples;Min_cycle;Max_cycle;Signal;HPM_P1;HPM_P2
2022/10/21 00:00:37;;;;;;;15.00;5.90;;;17.30;71.00;;;;;;5020844;28;21127;-50
2022/10/21 00:03:04;;;;;;;10.55;6.07;;;17.40;70.40;;;;;;5024157;28;20057;-49
2022/10/21 00:05:31;;;;;;;17.50;5.78;;;17.40;70.60;;;;;;5025404;28;20508;-48
2022/10/21 00:07:59;;;;;;;10.85;5.55;;;17.40;70.60;;;;;;5025241;28;20064;-48
2022/10/21 00:10:26;;;;;;;13.60;5.05;;;17.40;70.60;;;;;;5021827;28;20042;-48
2022/10/21 00:12:54;;;;;;;8.07;6.35;;;17.40;70.60;;;;;;5015750;28;20508;-48
2022/10/21 00:15:22;;;;;;;13.32;6.75;;;17.40;70.50;;;;;;5021352;28;20057;-47
2022/10/21 00:17:49;;;;;;;11.32;7.90;;;17.40;70.40;;;;;;5023945;28;20496;-44
2022/10/21 00:20:16;;;;;;;11.32;7.90;;;17.50;70.40;;;;;;5023771;28;20056;-45
2022/10/21 00:22:43;;;;;;;13.73;8.75;;;17.50;70.20;;;;;;5025417;28;20057;-45
2022/10/21 00:25:44;;;;;;;12.18;9.00;;;17.50;70.10;;;;;;5023903;28;20053;-50
2022/10/21 00:28:13;;;;;;;13.75;8.20;;;17.50;70.10;;;;;;5024456;28;20058;-49
2022/10/21 00:30:43;;;;;;;11.80;8.50;;;17.50;69.90;;;;;;5018891;28;20041;-47
2022/10/21 00:33:10;;;;;;;14.65;9.48;;;17.50;69.80;;;;;;5022299;28;20053;-49
2022/10/21 00:35:37;;;;;;;13.98;9.02;;;17.50;69.70;;;;;;5023084;28;20050;-50
2022/10/21 00:38:05;;;;;;;11.95;8.40;;;17.50;69.70;;;;;;5024361;28;20054;-48
2022/10/21 00:40:33;;;;;;;15.48;9.00;;;17.50;69.60;;;;;;5022261;28;20057;-48
2022/10/21 00:43:00;;;;;;;13.23;8.77;;;17.50;69.70;;;;;;5024189;28;20054;-47
2022/10/21 00:45:30;;;;;;;10.57;8.32;;;17.50;69.60;;;;;;5022709;28;20049;-47
2022/10/21 00:48:02;;;;;;;15.23;8.02;;;17.50;69.60;;;;;;5024363;28;20057;-49
2022/10/21 00:50:33;;;;;;;13.35;9.27;;;17.50;69.60;;;;;;5022929;28;20057;-49
2022/10/21 00:53:02;;;;;;;13.90;8.57;;;17.50;69.50;;;;;;5022584;28;20412;-50
2022/10/21 00:55:33;;;;;;;12.32;8.10;;;17.50;69.50;;;;;;5023734;28;20053;-50
2022/10/21 00:58:02;;;;;;;13.00;8.27;;;17.50;69.50;;;;;;5024706;28;20539;-49
2022/10/21 01:00:30;;;;;;;10.70;8.43;;;17.50;69.40;;;;;;5019417;28;20048;-46
2022/10/21 01:02:58;;;;;;;11.43;8.52;;;17.50;69.40;;;;;;5023887;28;20053;-46
2022/10/21 01:05:26;;;;;;;13.18;8.82;;;17.50;69.30;;;;;;5024230;28;20057;-47
2022/10/21 01:07:54;;;;;;;14.20;7.90;;;17.50;70.00;;;;;;5024635;28;20050;-47
2022/10/21 01:10:21;;;;;;;15.20;9.23;;;17.60;69.30;;;;;;5022092;28;20057;-48
2022/10/21 01:12:57;;;;;;;13.20;8.02;;;17.60;69.20;;;;;;5021124;28;20049;-46
2022/10/21 01:15:34;;;;;;;11.88;8.00;;;17.60;69.10;;;;;;5022550;28;22213;-47
2022/10/21 01:18:07;;;;;;;16.45;8.30;;;17.60;69.10;;;;;;5022918;28;20068;-47
2022/10/21 01:20:56;;;;;;;11.48;7.18;;;17.60;69.00;;;;;;5022861;28;20041;-45
2022/10/21 01:24:03;;;;;;;13.90;8.25;;;17.60;69.00;;;;;;5023308;28;20061;-49
2022/10/21 01:27:06;;;;;;;15.50;7.88;;;17.60;68.90;;;;;;5023384;28;20062;-47
2022/10/21 01:30:06;;;;;;;10.90;7.35;;;17.60;68.80;;;;;;5021880;28;20069;-47
2022/10/21 01:32:56;;;;;;;13.73;8.40;;;17.60;68.80;;;;;;5020236;28;20064;-48
2022/10/21 01:35:28;;;;;;;17.63;8.10;;;17.60;68.80;;;;;;5021353;28;20049;-45
2022/10/21 01:38:04;;;;;;;11.65;7.13;;;17.60;68.80;;;;;;5010656;28;20048;-47
2022/10/21 01:40:35;;;;;;;12.95;7.72;;;17.60;68.90;;;;;;5020068;28;20041;-47
2022/10/21 01:43:14;;;;;;;25.50;7.82;;;17.50;68.80;;;;;;5022860;28;20069;-46
2022/10/21 01:45:46;;;;;;;9.82;6.72;;;17.60;68.90;;;;;;5022294;28;20060;-44
2022/10/21 01:48:19;;;;;;;11.88;7.53;;;17.50;68.80;;;;;;5021801;28;20053;-45
2022/10/21 01:50:51;;;;;;;8.63;6.63;;;17.50;68.80;;;;;;5020408;28;20053;-47
2022/10/21 01:53:19;;;;;;;8.30;6.35;;;17.50;68.80;;;;;;5018183;28;20060;-46
2022/10/21 01:55:47;;;;;;;9.77;6.22;;;17.50;68.80;;;;;;5022375;28;20053;-45
2022/10/21 01:58:18;;;;;;;8.70;6.10;;;17.50;68.90;;;;;;5022201;28;20049;-47
2022/10/21 02:00:47;;;;;;;9.43;6.35;;;17.50;68.90;;;;;;5018904;28;20049;-45
2022/10/21 02:03:20;;;;;;;11.65;5.68;;;17.50;68.90;;;;;;5022257;28;20061;-46
2022/10/21 02:05:47;;;;;;;12.35;7.03;;;17.50;69.00;;;;;;5023112;28;20056;-48
2022/10/21 02:08:14;;;;;;;8.30;5.10;;;17.50;69.10;;;;;;5021713;28;20362;-50
2022/10/21 02:10:45;;;;;;;10.00;5.38;;;17.50;69.10;;;;;;5019774;28;20060;-48
2022/10/21 02:13:17;;;;;;;9.13;4.65;;;17.50;70.00;;;;;;5020322;28;20057;-48
2022/10/21 02:15:44;;;;;;;8.88;4.93;;;17.50;69.30;;;;;;5022784;28;20064;-47
2022/10/21 02:18:21;;;;;;;8.75;4.45;;;17.50;69.30;;;;;;5020578;28;20068;-44
2022/10/21 02:20:50;;;;;;;7.60;5.05;;;17.50;69.40;;;;;;5021490;28;20056;-47
2022/10/21 02:23:39;;;;;;;6.70;4.03;;;17.50;69.50;;;;;;5020762;28;20057;-46
2022/10/21 02:26:06;;;;;;;9.38;4.22;;;17.50;69.50;;;;;;5022181;28;20064;-46
2022/10/21 02:28:34;;;;;;;9.93;4.45;;;17.50;69.40;;;;;;5021242;28;20057;-44
2022/10/21 02:31:15;;;;;;;6.90;4.55;;;17.50;69.40;;;;;;5020723;28;20397;-48
2022/10/21 02:33:51;;;;;;;7.88;3.88;;;17.50;70.20;;;;;;5022261;28;20060;-46
2022/10/21 02:36:30;;;;;;;6.35;4.05;;;17.50;69.40;;;;;;5024722;28;20061;-53
2022/10/21 02:39:01;;;;;;;6.38;4.22;;;17.50;69.40;;;;;;5024101;28;20057;-52
2022/10/21 02:41:31;;;;;;;7.25;4.05;;;17.50;69.50;;;;;;5022850;28;20124;-52
2022/10/21 02:44:01;;;;;;;9.88;4.45;;;17.50;69.40;;;;;;5024272;28;20404;-49
2022/10/21 02:46:36;;;;;;;9.40;4.70;;;17.50;69.40;;;;;;5022343;28;20060;-51
2022/10/21 02:49:05;;;;;;;8.07;4.35;;;17.50;69.40;;;;;;5026189;28;21051;-52
2022/10/21 02:51:32;;;;;;;6.40;4.05;;;17.60;69.40;;;;;;5019631;28;20418;-52
2022/10/21 02:53:59;;;;;;;9.00;4.30;;;17.60;69.30;;;;;;5023671;28;20053;-53
2022/10/21 02:56:27;;;;;;;10.30;4.70;;;17.60;69.20;;;;;;5023110;28;20046;-51
2022/10/21 02:58:54;;;;;;;7.53;4.55;;;17.60;69.20;;;;;;5023821;28;20489;-52
2022/10/21 03:01:22;;;;;;;9.35;4.43;;;17.50;69.00;;;;;;5020089;28;20057;-52
2022/10/21 03:07:13;;;;;;;10.35;5.00;;;17.50;68.90;;;;;;5025213;28;20052;-55
2022/10/21 03:09:41;;;;;;;7.10;4.53;;;17.50;68.60;;;;;;5027205;28;20056;-53
2022/10/21 03:12:08;;;;;;;8.07;4.90;;;17.50;68.60;;;;;;5024346;28;20049;-51
2022/10/21 03:14:35;;;;;;;6.10;4.30;;;17.50;68.60;;;;;;5028651;28;20055;-53
2022/10/21 03:17:02;;;;;;;7.55;4.40;;;17.50;68.60;;;;;;5027281;28;20064;-53
2022/10/21 03:19:29;;;;;;;5.18;4.07;;;17.50;68.60;;;;;;5028243;28;20053;-51
2022/10/21 03:21:56;;;;;;;10.55;3.60;;;17.40;68.50;;;;;;5024917;28;20049;-54
2022/10/21 03:24:25;;;;;;;6.50;3.88;;;17.50;68.60;;;;;;5024513;28;20037;-53
2022/10/21 03:26:52;;;;;;;7.97;3.95;;;17.50;68.60;;;;;;5025329;28;20049;-47
2022/10/21 03:29:19;;;;;;;6.00;4.30;;;17.40;68.50;;;;;;5023090;28;20053;-49
2022/10/21 03:31:46;;;;;;;7.32;4.55;;;17.40;68.50;;;;;;5023576;28;20052;-49
2022/10/21 03:34:13;;;;;;;8.50;4.40;;;17.40;68.50;;;;;;5022628;28;20060;-52
2022/10/21 03:36:40;;;;;;;9.55;4.32;;;17.40;68.50;;;;;;5026005;28;20056;-50
2022/10/21 03:39:08;;;;;;;6.53;4.68;;;17.40;68.50;;;;;;5024269;28;20386;-48
2022/10/21 03:41:36;;;;;;;11.65;4.35;;;17.40;68.40;;;;;;5020991;28;20413;-49
2022/10/21 03:44:03;;;;;;;9.75;4.25;;;17.40;68.40;;;;;;5027911;28;20049;-52
2022/10/21 03:46:31;;;;;;;11.32;4.20;;;17.40;68.40;;;;;;5027635;28;20064;-52
2022/10/21 03:48:58;;;;;;;7.20;4.53;;;17.40;68.40;;;;;;5027175;28;20045;-52
2022/10/21 03:51:25;;;;;;;5.82;4.07;;;17.40;68.50;;;;;;5024077;28;20053;-53
2022/10/21 03:53:52;;;;;;;7.10;4.32;;;17.40;68.50;;;;;;5025101;28;20472;-52
2022/10/21 03:56:19;;;;;;;8.15;4.22;;;17.30;68.40;;;;;;5027267;28;20049;-51
2022/10/21 03:58:48;;;;;;;5.22;3.90;;;17.40;68.50;;;;;;5026417;28;20060;-51
2022/10/21 04:01:15;;;;;;;6.70;4.05;;;17.40;68.50;;;;;;5025841;28;20065;-52
2022/10/21 04:03:43;;;;;;;7.72;4.05;;;17.40;68.50;;;;;;5025383;28;20056;-48
2022/10/21 04:06:10;;;;;;;5.60;3.90;;;17.40;68.50;;;;;;5026016;28;20068;-51
2022/10/21 04:08:37;;;;;;;13.25;3.75;;;17.40;68.50;;;;;;5023793;28;20065;-51
2022/10/21 04:11:05;;;;;;;5.68;3.10;;;17.40;68.60;;;;;;5008596;28;20077;-52
2022/10/21 04:13:32;;;;;;;7.25;3.47;;;17.40;68.60;;;;;;5021156;28;20508;-51
2022/10/21 04:16:02;;;;;;;4.35;3.28;;;17.40;69.40;;;;;;5022394;28;20397;-48
2022/10/21 04:18:30;;;;;;;7.57;3.15;;;17.40;68.70;;;;;;5022167;28;20053;-51
2022/10/21 04:20:57;;;;;;;3.78;3.13;;;17.40;68.60;;;;;;5025036;28;20049;-51
2022/10/21 04:23:24;;;;;;;4.30;3.60;;;17.40;68.70;;;;;;5021123;28;20053;-52
2022/10/21 04:25:52;;;;;;;6.57;3.35;;;17.40;68.60;;;;;;5024231;28;20053;-50
2022/10/21 04:28:19;;;;;;;7.43;3.60;;;17.40;68.60;;;;;;5038589;28;20053;-51
2022/10/21 04:30:46;;;;;;;9.98;3.65;;;17.40;68.60;;;;;;5044721;28;20057;-51
2022/10/21 04:33:14;;;;;;;6.80;3.90;;;17.40;68.60;;;;;;5041365;28;20048;-53
2022/10/21 04:35:42;;;;;;;5.72;3.30;;;17.40;68.50;;;;;;5045545;28;20063;-49
2022/10/21 04:38:09;;;;;;;5.53;3.08;;;17.40;68.50;;;;;;5043003;28;20057;-51
2022/10/21 04:40:36;;;;;;;4.03;3.45;;;17.40;68.50;;;;;;5044719;28;20049;-52
2022/10/21 04:43:04;;;;;;;9.13;3.30;;;17.50;68.60;;;;;;5044019;28;20052;-51
2022/10/21 04:45:31;;;;;;;4.00;3.03;;;17.40;68.50;;;;;;5043327;28;20420;-48
2022/10/21 04:47:58;;;;;;;17.10;8.68;;;17.40;68.40;;;;;;5042081;28;20457;-53
2022/10/21 04:50:27;;;;;;;14.05;8.43;;;17.40;68.40;;;;;;5040510;28;20053;-52
2022/10/21 04:52:54;;;;;;;11.73;5.97;;;17.50;68.40;;;;;;5040490;28;20049;-52
2022/10/21 04:55:21;;;;;;;4.97;3.88;;;17.40;68.30;;;;;;5044797;28;20057;-52
2022/10/21 04:57:48;;;;;;;4.38;2.90;;;17.40;68.30;;;;;;5040217;28;20068;-52
2022/10/21 05:00:16;;;;;;;5.85;3.35;;;17.40;68.30;;;;;;5042539;28;20076;-49
2022/10/21 05:02:43;;;;;;;5.05;2.80;;;17.50;68.30;;;;;;5044329;28;20061;-48
2022/10/21 05:05:10;;;;;;;5.22;3.38;;;17.50;68.30;;;;;;5044268;28;20488;-51
2022/10/21 05:07:39;;;;;;;4.65;2.58;;;17.50;68.30;;;;;;5041056;28;20060;-51
2022/10/21 05:10:06;;;;;;;4.75;2.67;;;17.50;68.30;;;;;;5040963;28;20064;-52
2022/10/21 05:12:34;;;;;;;4.25;2.10;;;17.50;68.30;;;;;;5038732;28;20053;-52
2022/10/21 05:15:01;;;;;;;9.10;3.83;;;17.50;68.30;;;;;;5034759;28;20064;-51
2022/10/21 05:17:28;;;;;;;11.82;6.20;;;17.50;68.30;;;;;;5038266;28;20053;-52
2022/10/21 05:19:55;;;;;;;7.47;3.78;;;17.50;68.30;;;;;;5041380;28;20049;-51
2022/10/21 05:22:22;;;;;;;6.47;2.90;;;17.50;68.20;;;;;;5040094;28;20048;-49
2022/10/21 05:24:51;;;;;;;6.18;2.35;;;17.50;68.20;;;;;;5039872;28;20057;-51
2022/10/21 05:27:18;;;;;;;5.80;2.20;;;17.60;68.20;;;;;;5043662;28;20591;-52
2022/10/21 05:29:45;;;;;;;4.65;2.20;;;17.50;68.10;;;;;;5038216;28;20061;-52
2022/10/21 05:32:12;;;;;;;8.85;2.65;;;17.60;68.10;;;;;;5031910;28;20045;-51
2022/10/21 05:34:40;;;;;;;11.55;4.47;;;17.60;68.10;;;;;;5040574;28;20421;-52
2022/10/21 05:37:07;;;;;;;4.15;3.17;;;17.60;68.00;;;;;;5040181;28;20053;-52
2022/10/21 05:39:34;;;;;;;4.18;3.03;;;17.60;68.10;;;;;;5039898;28;20048;-51
2022/10/21 05:42:03;;;;;;;7.45;2.90;;;17.60;68.10;;;;;;5040630;28;20045;-52
2022/10/21 05:44:30;;;;;;;4.00;2.63;;;17.60;68.10;;;;;;5041182;28;20057;-51
2022/10/21 05:46:57;;;;;;;4.25;3.17;;;17.60;68.10;;;;;;5041994;28;20053;-51
2022/10/21 05:49:24;;;;;;;5.32;2.30;;;17.60;68.00;;;;;;5039311;28;20053;-52
2022/10/21 05:51:51;;;;;;;3.03;2.55;;;17.70;68.00;;;;;;5036686;28;20436;-51
2022/10/21 05:54:19;;;;;;;5.90;2.63;;;17.60;67.90;;;;;;5038431;28;20060;-51
2022/10/21 05:56:46;;;;;;;5.80;3.00;;;17.70;67.90;;;;;;5042691;28;20415;-45
2022/10/21 05:59:15;;;;;;;5.07;2.58;;;17.70;67.80;;;;;;5041517;28;20049;-51
2022/10/21 06:01:43;;;;;;;5.60;3.08;;;17.70;67.70;;;;;;5035024;28;20053;-51
2022/10/21 06:04:10;;;;;;;4.13;2.60;;;17.70;67.70;;;;;;5038193;28;20416;-52
2022/10/21 06:06:37;;;;;;;6.03;3.33;;;17.70;67.60;;;;;;5043711;28;20056;-51
2022/10/21 06:09:04;;;;;;;4.78;3.13;;;17.70;67.60;;;;;;5039498;28;20057;-50
2022/10/21 06:11:32;;;;;;;5.25;3.47;;;17.70;67.40;;;;;;5040021;28;20507;-48
2022/10/21 06:13:59;;;;;;;6.63;3.72;;;17.70;67.30;;;;;;5040042;28;20052;-49
2022/10/21 06:16:28;;;;;;;5.32;3.83;;;17.70;67.30;;;;;;5039455;28;20503;-50
2022/10/21 06:18:55;;;;;;;6.93;4.30;;;17.70;67.20;;;;;;5040192;28;20519;-52
2022/10/21 06:21:22;;;;;;;8.27;3.88;;;17.70;67.20;;;;;;5040030;28;20493;-52
2022/10/21 06:23:53;;;;;;;6.07;3.88;;;17.70;67.10;;;;;;5040325;28;20567;-51
2022/10/21 06:26:23;;;;;;;5.55;3.97;;;17.70;67.10;;;;;;5035484;28;20515;-52
2022/10/21 06:28:50;;;;;;;5.18;3.65;;;17.70;67.10;;;;;;5038154;28;20052;-52
2022/10/21 06:31:20;;;;;;;5.10;3.13;;;17.70;67.20;;;;;;5037664;28;20061;-48
2022/10/21 06:33:49;;;;;;;10.38;4.00;;;17.70;67.30;;;;;;5043286;28;20053;-51
2022/10/21 06:36:16;;;;;;;5.20;3.50;;;17.60;67.20;;;;;;5041757;28;20056;-51
2022/10/21 06:38:44;;;;;;;3.72;3.33;;;17.70;67.30;;;;;;5038856;28;20053;-49
2022/10/21 06:41:13;;;;;;;7.57;3.35;;;17.60;67.20;;;;;;5039678;28;20404;-48
2022/10/21 06:43:40;;;;;;;4.90;3.35;;;17.70;67.20;;;;;;5041462;28;20064;-49
2022/10/21 06:46:09;;;;;;;4.88;3.25;;;17.70;67.30;;;;;;5041090;28;20063;-51
2022/10/21 06:48:37;;;;;;;5.93;3.88;;;17.70;67.30;;;;;;5039711;28;20432;-51
2022/10/21 06:51:08;;;;;;;6.45;3.97;;;17.60;67.20;;;;;;5035609;28;20049;-51
2022/10/21 06:53:36;;;;;;;4.93;3.35;;;17.60;67.20;;;;;;5030975;28;20056;-51
2022/10/21 06:56:06;;;;;;;6.78;3.42;;;17.70;67.20;;;;;;5031054;28;20083;-52
2022/10/21 06:58:34;;;;;;;5.05;3.25;;;17.70;67.30;;;;;;5029268;28;20440;-52
2022/10/21 07:01:06;;;;;;;6.35;3.35;;;17.60;67.20;;;;;;5033375;28;20409;-50
2022/10/21 07:03:33;;;;;;;7.97;3.40;;;17.60;67.30;;;;;;5042820;28;21126;-52
2022/10/21 07:06:01;;;;;;;6.22;4.00;;;17.70;67.40;;;;;;5041223;28;20610;-51
2022/10/21 07:08:30;;;;;;;5.75;3.40;;;17.70;67.40;;;;;;5037124;28;20068;-50
2022/10/21 07:10:58;;;;;;;9.50;3.40;;;17.60;67.40;;;;;;5038137;28;20512;-51
2022/10/21 07:13:25;;;;;;;5.95;3.22;;;17.70;67.50;;;;;;5037253;28;20072;-51
2022/10/21 07:15:59;;;;;;;7.13;3.80;;;17.70;67.60;;;;;;5038719;28;20489;-50
2022/10/21 07:18:27;;;;;;;5.15;3.47;;;17.70;67.60;;;;;;5036661;28;20099;-49
2022/10/21 07:20:55;;;;;;;6.82;3.05;;;17.70;67.60;;;;;;5036665;28;20383;-52
2022/10/21 07:23:22;;;;;;;7.10;3.00;;;17.70;67.60;;;;;;5035841;28;20059;-49
2022/10/21 07:25:50;;;;;;;7.15;2.75;;;17.70;67.60;;;;;;5040652;28;20481;-52
2022/10/21 07:28:18;;;;;;;6.13;2.95;;;17.70;67.60;;;;;;5040703;28;20065;-51
2022/10/21 07:30:45;;;;;;;9.82;3.17;;;17.70;67.70;;;;;;5032623;28;20064;-51
2022/10/21 07:33:12;;;;;;;4.50;3.10;;;17.70;67.70;;;;;;5041396;28;20052;-52
2022/10/21 07:35:39;;;;;;;4.90;3.15;;;17.80;67.80;;;;;;5040866;28;20053;-50
2022/10/21 07:38:07;;;;;;;6.45;3.40;;;17.80;67.80;;;;;;5038264;28;20071;-50
2022/10/21 07:40:39;;;;;;;4.05;2.90;;;17.80;67.80;;;;;;5037919;28;20049;-49
2022/10/21 07:43:08;;;;;;;5.03;2.90;;;17.80;67.80;;;;;;5039722;28;20064;-51
2022/10/21 07:45:40;;;;;;;5.07;2.70;;;17.80;67.70;;;;;;5038311;28;20057;-53
2022/10/21 07:48:07;;;;;;;5.10;2.70;;;17.80;67.80;;;;;;5042545;28;20057;-51
2022/10/21 07:50:35;;;;;;;6.55;2.80;;;17.80;67.80;;;;;;5041778;28;20068;-53
2022/10/21 07:53:02;;;;;;;6.75;2.80;;;17.80;67.80;;;;;;5039248;28;20488;-50
2022/10/21 07:55:30;;;;;;;7.00;2.83;;;17.80;67.80;;;;;;5042691;28;20420;-52
2022/10/21 07:57:58;;;;;;;6.63;2.65;;;17.90;68.00;;;;;;5045650;28;20057;-50
2022/10/21 08:00:26;;;;;;;4.88;2.60;;;17.90;67.90;;;;;;5042734;28;20058;-52
2022/10/21 08:02:55;;;;;;;13.10;3.17;;;17.90;67.90;;;;;;5042347;28;20049;-51
2022/10/21 08:05:23;;;;;;;4.68;2.90;;;17.90;68.00;;;;;;5043861;28;20060;-49
2022/10/21 08:07:50;;;;;;;5.25;2.58;;;17.90;68.00;;;;;;5043324;28;20087;-48
2022/10/21 08:10:17;;;;;;;6.15;2.80;;;17.90;68.00;;;;;;5042507;28;20424;-51
2022/10/21 08:12:44;;;;;;;8.50;3.40;;;17.90;68.00;;;;;;5043532;28;20049;-52
2022/10/21 08:15:12;;;;;;;11.18;2.80;;;17.90;68.10;;;;;;5044176;28;20480;-49
2022/10/21 08:17:40;;;;;;;7.60;2.90;;;17.90;68.20;;;;;;5043548;28;20053;-52
2022/10/21 08:20:08;;;;;;;4.80;2.83;;;18.00;68.30;;;;;;5044474;28;20068;-52
2022/10/21 08:22:35;;;;;;;6.13;3.15;;;18.00;68.40;;;;;;5043121;28;20063;-51
2022/10/21 08:25:03;;;;;;;6.95;2.85;;;18.00;68.40;;;;;;5040922;28;20956;-52
2022/10/21 08:27:30;;;;;;;8.80;3.15;;;18.00;68.60;;;;;;5041531;28;20057;-50
2022/10/21 08:29:57;;;;;;;7.38;2.72;;;18.00;68.70;;;;;;5044028;28;20049;-52
2022/10/21 08:32:24;;;;;;;7.65;2.65;;;18.00;69.00;;;;;;5043248;28;20053;-52
2022/10/21 08:34:53;;;;;;;8.73;2.97;;;18.00;69.90;;;;;;5043499;28;20061;-49
2022/10/21 08:37:20;;;;;;;4.70;2.38;;;18.00;69.20;;;;;;5039870;28;20056;-50
2022/10/21 08:39:47;;;;;;;3.75;2.50;;;18.00;69.20;;;;;;5043271;28;20053;-52
2022/10/21 08:42:16;;;;;;;7.18;2.38;;;18.10;69.30;;;;;;5042936;28;20057;-53
2022/10/21 08:44:49;;;;;;;6.95;2.17;;;18.10;69.30;;;;;;5041740;28;20044;-50
2022/10/21 08:47:27;;;;;;;6.57;1.95;;;18.10;69.50;;;;;;5042934;28;20057;-53
2022/10/21 08:50:00;;;;;;;7.20;2.38;;;18.10;69.40;;;;;;5043947;28;20056;-52
2022/10/21 08:52:37;;;;;;;4.13;2.25;;;18.10;69.40;;;;;;5043308;28;20397;-51
2022/10/21 08:55:08;;;;;;;5.15;2.47;;;18.20;69.50;;;;;;5042952;28;20045;-52
2022/10/21 08:57:35;;;;;;;5.95;2.03;;;18.20;69.50;;;;;;5045716;28;20053;-53
2022/10/21 09:00:13;;;;;;;3.10;1.98;;;18.20;69.50;;;;;;5041971;28;20069;-52
2022/10/21 09:02:55;;;;;;;2.67;1.80;;;18.20;69.50;;;;;;5043538;28;20057;-51
2022/10/21 09:05:38;;;;;;;4.68;2.42;;;18.20;69.40;;;;;;5042144;28;20049;-50
2022/10/21 09:08:14;;;;;;;6.15;2.10;;;18.30;69.40;;;;;;5042193;28;20068;-51
2022/10/21 09:10:56;;;;;;;5.68;2.55;;;18.30;69.30;;;;;;5043868;28;20056;-53
2022/10/21 09:13:50;;;;;;;7.05;2.53;;;18.30;69.20;;;;;;5039763;28;20045;-51
2022/10/21 09:16:23;;;;;;;4.43;2.63;;;18.30;69.10;;;;;;5042226;28;20053;-51
2022/10/21 09:19:01;;;;;;;8.52;2.58;;;18.30;69.10;;;;;;5044583;28;20053;-51
2022/10/21 09:21:39;;;;;;;10.98;3.10;;;18.30;69.10;;;;;;5043192;28;20053;-52
2022/10/21 09:24:10;;;;;;;5.68;1.98;;;18.30;69.10;;;;;;5041996;28;20057;-52
2022/10/21 09:26:40;;;;;;;5.60;2.05;;;18.40;69.10;;;;;;5043408;28;20057;-52
2022/10/21 09:29:32;;;;;;;3.60;1.95;;;18.30;69.10;;;;;;5044406;28;20060;-52
2022/10/21 09:32:13;;;;;;;6.07;1.75;;;18.30;69.20;;;;;;5025407;28;20057;-52
2022/10/21 09:34:47;;;;;;;4.65;2.05;;;18.30;69.10;;;;;;5042485;28;20045;-48
2022/10/21 09:37:24;;;;;;;3.97;2.13;;;18.40;69.00;;;;;;5041907;28;20072;-48
2022/10/21 09:39:58;;;;;;;3.90;2.20;;;18.40;69.00;;;;;;5040086;28;20060;-53
2022/10/21 09:42:25;;;;;;;10.20;2.83;;;18.40;68.90;;;;;;5041588;28;20064;-51
2022/10/21 09:44:52;;;;;;;4.60;2.75;;;18.40;68.90;;;;;;5040008;28;20476;-53
2022/10/21 09:47:22;;;;;;;4.57;2.70;;;18.40;69.00;;;;;;5041316;28;20064;-52
2022/10/21 09:49:53;;;;;;;6.00;2.90;;;18.40;69.00;;;;;;5042523;28;20607;-53
2022/10/21 09:52:24;;;;;;;4.03;2.58;;;18.40;69.10;;;;;;5041765;28;20420;-49
2022/10/21 09:54:52;;;;;;;15.55;3.63;;;18.40;69.10;;;;;;5040236;28;20411;-51
2022/10/21 09:57:25;;;;;;;7.22;2.40;;;18.40;69.00;;;;;;5036524;28;20064;-52
2022/10/21 09:59:54;;;;;;;8.68;3.22;;;18.40;68.90;;;;;;5042061;28;20075;-51
2022/10/21 10:02:28;;;;;;;5.88;2.50;;;18.40;68.90;;;;;;5042442;28;20053;-49
2022/10/21 10:04:56;;;;;;;6.28;2.55;;;18.40;68.90;;;;;;5043187;28;20049;-51
2022/10/21 10:07:33;;;;;;;6.28;2.60;;;18.50;69.00;;;;;;5042138;28;20060;-52
2022/10/21 10:10:00;;;;;;;5.25;2.00;;;18.40;69.10;;;;;;5040330;28;20067;-50
2022/10/21 10:12:29;;;;;;;3.85;2.00;;;18.40;69.00;;;;;;5042866;28;20507;-51
2022/10/21 10:14:56;;;;;;;3.42;1.98;;;18.40;69.10;;;;;;5043235;28;20053;-53
2022/10/21 10:17:30;;;;;;;8.23;2.13;;;18.40;69.10;;;;;;5041518;28;20056;-52
2022/10/21 10:20:18;;;;;;;7.60;2.57;;;18.40;69.20;;;;;;5039997;28;20649;-52
2022/10/21 10:23:07;;;;;;;3.30;1.67;;;18.40;69.20;;;;;;5040095;28;20056;-51
2022/10/21 10:25:37;;;;;;;3.15;2.08;;;18.50;69.20;;;;;;5041760;28;20071;-52
2022/10/21 10:28:20;;;;;;;3.78;2.20;;;18.50;69.10;;;;;;5043892;28;20056;-50
2022/10/21 10:30:49;;;;;;;5.00;2.40;;;18.50;69.10;;;;;;5038741;28;20064;-51
2022/10/21 10:33:20;;;;;;;4.68;2.50;;;18.50;69.10;;;;;;5041615;28;20076;-50
2022/10/21 10:35:48;;;;;;;4.07;2.00;;;18.50;69.00;;;;;;5042387;28;20049;-50
2022/10/21 10:38:25;;;;;;;5.70;2.30;;;18.50;69.00;;;;;;5032243;28;20060;-51
2022/10/21 10:40:53;;;;;;;3.58;2.08;;;18.50;69.20;;;;;;5035674;28;20063;-52
2022/10/21 10:43:27;;;;;;;5.38;1.95;;;18.50;69.10;;;;;;5037325;28;20057;-53
2022/10/21 10:45:58;;;;;;;6.97;2.25;;;18.50;69.10;;;;;;5041172;28;20052;-49
2022/10/21 10:48:30;;;;;;;7.53;2.72;;;18.60;69.20;;;;;;5037158;28;20420;-51
2022/10/21 10:50:57;;;;;;;2.88;2.10;;;18.50;69.20;;;;;;5040892;28;20053;-52
2022/10/21 10:53:36;;;;;;;4.57;2.03;;;18.60;69.30;;;;;;5040935;28;20052;-51
2022/10/21 10:56:20;;;;;;;3.25;1.77;;;18.60;69.30;;;;;;5030096;28;20064;-49
2022/10/21 10:58:56;;;;;;;3.45;2.10;;;18.60;69.30;;;;;;5035806;28;20071;-50
2022/10/21 11:01:27;;;;;;;5.70;2.10;;;18.60;69.40;;;;;;5028961;28;20067;-51
2022/10/21 11:03:57;;;;;;;3.60;1.98;;;18.70;69.50;;;;;;5035668;28;20406;-50
2022/10/21 11:06:34;;;;;;;2.65;1.52;;;18.60;69.60;;;;;;5041504;28;20064;-51
2022/10/21 11:09:04;;;;;;;3.58;1.70;;;18.60;69.70;;;;;;5041316;28;20064;-51
2022/10/21 11:11:36;;;;;;;4.85;1.58;;;18.70;69.70;;;;;;5041315;28;20049;-53
2022/10/21 11:14:03;;;;;;;5.95;1.77;;;18.70;69.90;;;;;;5042237;28;20060;-52
2022/10/21 11:16:53;;;;;;;3.35;1.75;;;18.70;70.00;;;;;;5042109;28;20052;-52
2022/10/21 11:19:31;;;;;;;7.28;1.90;;;18.70;70.20;;;;;;5041063;28;20084;-51
2022/10/21 11:22:12;;;;;;;2.58;1.42;;;18.80;70.30;;;;;;5035508;28;20060;-52
2022/10/21 11:24:54;;;;;;;2.08;1.63;;;18.80;70.40;;;;;;5041741;28;20508;-52
2022/10/21 11:27:33;;;;;;;3.85;1.80;;;18.80;70.40;;;;;;5040511;28;20053;-52
2022/10/21 11:30:05;;;;;;;4.90;1.80;;;18.80;70.40;;;;;;5045216;28;20471;-52
2022/10/21 11:32:45;;;;;;;4.80;1.67;;;18.90;70.50;;;;;;5043722;28;20056;-52
2022/10/21 11:35:32;;;;;;;6.35;2.22;;;18.90;70.50;;;;;;5045762;28;20049;-50
2022/10/21 11:38:20;;;;;;;3.20;1.65;;;18.90;70.80;;;;;;5032049;28;20053;-52
2022/10/21 11:40:53;;;;;;;3.88;1.38;;;19.00;70.90;;;;;;5035418;28;20064;-49
2022/10/21 11:43:31;;;;;;;3.35;1.58;;;19.00;70.90;;;;;;5047260;28;20254;-52
2022/10/21 11:46:03;;;;;;;6.75;1.60;;;19.10;71.00;;;;;;5045140;28;20424;-52
2022/10/21 11:48:47;;;;;;;2.38;1.40;;;19.10;71.00;;;;;;5046133;28;20057;-51
2022/10/21 11:51:25;;;;;;;4.25;1.20;;;19.20;71.20;;;;;;5043241;28;20059;-50
2022/10/21 11:54:12;;;;;;;3.75;1.40;;;19.20;71.20;;;;;;5043916;28;20515;-52
2022/10/21 11:56:49;;;;;;;3.70;1.27;;;19.20;71.10;;;;;;5046826;28;20420;-52
2022/10/21 11:59:29;;;;;;;2.92;1.00;;;19.30;71.00;;;;;;5043874;28;20406;-51
2022/10/21 12:02:09;;;;;;;1.70;1.10;;;19.40;71.00;;;;;;5039429;28;20052;-49
2022/10/21 12:04:47;;;;;;;2.42;1.17;;;19.40;70.90;;;;;;5045495;28;20056;-53
2022/10/21 12:07:29;;;;;;;2.78;1.30;;;19.40;70.90;;;;;;5044018;28;20072;-50
2022/10/21 12:10:01;;;;;;;5.15;1.38;;;19.50;71.10;;;;;;5044267;28;20400;-51
2022/10/21 12:12:34;;;;;;;7.28;1.30;;;19.50;71.30;;;;;;5044805;28;20062;-48
2022/10/21 12:15:03;;;;;;;6.00;1.20;;;19.50;71.40;;;;;;5044895;28;20064;-52
2022/10/21 12:17:33;;;;;;;4.65;1.50;;;19.60;71.40;;;;;;5044087;28;20059;-50
2022/10/21 12:20:03;;;;;;;3.70;1.02;;;19.60;71.60;;;;;;5041688;28;20492;-51
2022/10/21 12:22:32;;;;;;;6.05;1.23;;;19.70;71.50;;;;;;5045560;28;20079;-53
2022/10/21 12:25:09;;;;;;;2.33;0.82;;;19.70;71.30;;;;;;5043687;28;20060;-53
2022/10/21 12:27:44;;;;;;;1.67;1.20;;;19.70;71.10;;;;;;5045929;28;20088;-51
2022/10/21 12:30:18;;;;;;;2.13;0.98;;;19.80;70.90;;;;;;5044817;28;20436;-52
2022/10/21 12:33:00;;;;;;;1.90;0.98;;;19.80;70.80;;;;;;5041673;28;20816;-52
2022/10/21 12:35:44;;;;;;;1.27;0.93;;;19.90;70.80;;;;;;5045380;28;20068;-50
2022/10/21 12:38:23;;;;;;;3.78;0.98;;;19.90;70.80;;;;;;5040922;28;20080;-52
2022/10/21 12:40:51;;;;;;;3.50;1.02;;;19.90;70.70;;;;;;5043680;28;20056;-51
2022/10/21 12:43:26;;;;;;;2.35;0.95;;;19.90;70.60;;;;;;5046195;28;20071;-50
2022/10/21 12:46:05;;;;;;;4.07;0.80;;;20.00;70.60;;;;;;5044655;28;20045;-53
2022/10/21 12:48:38;;;;;;;0.75;0.60;;;20.00;70.50;;;;;;5044884;28;20432;-52
2022/10/21 12:51:16;;;;;;;1.45;0.65;;;20.00;70.60;;;;;;5041077;28;20060;-52
2022/10/21 12:53:49;;;;;;;3.92;0.73;;;20.00;70.50;;;;;;5038129;28;20055;-52
2022/10/21 12:56:29;;;;;;;1.87;0.70;;;20.10;70.60;;;;;;5040327;28;20045;-51
2022/10/21 12:59:02;;;;;;;1.88;0.50;;;20.10;70.20;;;;;;5043908;28;20464;-52
2022/10/21 13:01:39;;;;;;;0.65;0.60;;;20.10;70.00;;;;;;5037384;28;20404;-51
2022/10/21 13:04:47;;;;;;;1.73;0.50;;;20.10;69.90;;;;;;5042982;28;20716;-52
2022/10/21 13:07:36;;;;;;;7.60;1.05;;;20.10;69.90;;;;;;5042741;28;20060;-52
2022/10/21 13:10:24;;;;;;;1.40;0.80;;;20.20;69.60;;;;;;5040506;28;20492;-51